sensor_id;sensor_type;location;lat;lon;timestamp;P1;durP1;ratioP1;P2;durP2;ratioP2
6394;SDS011;3230;42.588;23.358;2022-10-15T00:01:37;21.13;;;12.90;;
6394;SDS011;3230;42.588;23.358;2022-10-15T00:04:03;14.20;;;7.37;;
6394;SDS011;3230;42.588;23.358;2022-10-15T00:06:28;10.53;;;6.80;;
6394;SDS011;3230;42.588;23.358;2022-10-15T00:08:54;69.80;;;27.00;;
6394;SDS011;3230;42.588;23.358;2022-10-15T00:11:24;64.97;;;28.33;;
6394;SDS011;3230;42.588;23.358;2022-10-15T00:13:57;34.83;;;15.97;;
6394;SDS011;3230;42.588;23.358;2022-10-15T00:16:24;57.77;;;26.57;;
6394;SDS011;3230;42.588;23.358;2022-10-15T00:18:51;61.60;;;28.10;;
6394;SDS011;3230;42.588;23.358;2022-10-15T00:21:20;47.60;;;25.50;;
6394;SDS011;3230;42.588;23.358;2022-10-15T00:23:46;54.23;;;27.80;;
6394;SDS011;3230;42.588;23.358;2022-10-15T00:26:15;25.33;;;14.77;;
6394;SDS011;3230;42.588;23.358;2022-10-15T00:28:42;20.23;;;11.47;;
6394;SDS011;3230;42.588;23.358;2022-10-15T00:31:13;16.37;;;9.23;;
6394;SDS011;3230;42.588;23.358;2022-10-15T00:33:40;15.13;;;7.60;;
6394;SDS011;3230;42.588;23.358;2022-10-15T00:36:06;15.93;;;9.90;;
6394;SDS011;3230;42.588;23.358;2022-10-15T00:38:40;36.23;;;19.70;;
6394;SDS011;3230;42.588;23.358;2022-10-15T00:41:06;25.50;;;14.77;;
6394;SDS011;3230;42.588;23.358;2022-10-15T00:43:39;20.23;;;12.23;;
6394;SDS011;3230;42.588;23.358;2022-10-15T00:46:24;18.30;;;10.77;;
6394;SDS011;3230;42.588;23.358;2022-10-15T00:49:04;12.13;;;7.53;;
6394;SDS011;3230;42.588;23.358;2022-10-15T00:51:33;12.40;;;8.07;;
6394;SDS011;3230;42.588;23.358;2022-10-15T00:54:04;10.60;;;7.40;;
6394;SDS011;3230;42.588;23.358;2022-10-15T00:56:30;12.67;;;8.50;;
6394;SDS011;3230;42.588;23.358;2022-10-15T00:58:57;14.47;;;9.53;;
6394;SDS011;3230;42.588;23.358;2022-10-15T01:01:23;15.90;;;9.53;;
6394;SDS011;3230;42.588;23.358;2022-10-15T01:03:50;12.70;;;8.60;;
6394;SDS011;3230;42.588;23.358;2022-10-15T01:06:17;14.40;;;7.67;;
6394;SDS011;3230;42.588;23.358;2022-10-15T01:08:42;11.83;;;8.00;;
6394;SDS011;3230;42.588;23.358;2022-10-15T01:11:18;12.43;;;8.20;;
6394;SDS011;3230;42.588;23.358;2022-10-15T01:16:49;9.93;;;7.27;;
6394;SDS011;3230;42.588;23.358;2022-10-15T01:27:34;12.87;;;7.40;;
6394;SDS011;3230;42.588;23.358;2022-10-15T01:32:59;12.40;;;6.80;;
6394;SDS011;3230;42.588;23.358;2022-10-15T01:43:26;9.23;;;6.80;;
6394;SDS011;3230;42.588;23.358;2022-10-15T01:46:15;9.67;;;6.70;;
6394;SDS011;3230;42.588;23.358;2022-10-15T01:48:45;8.40;;;6.40;;
6394;SDS011;3230;42.588;23.358;2022-10-15T01:51:13;8.60;;;6.47;;
6394;SDS011;3230;42.588;23.358;2022-10-15T01:53:42;9.13;;;6.73;;
6394;SDS011;3230;42.588;23.358;2022-10-15T01:56:10;12.27;;;8.13;;
6394;SDS011;3230;42.588;23.358;2022-10-15T01:58:39;13.80;;;7.60;;
6394;SDS011;3230;42.588;23.358;2022-10-15T02:01:07;12.03;;;7.10;;
6394;SDS011;3230;42.588;23.358;2022-10-15T02:03:43;8.33;;;6.20;;
6394;SDS011;3230;42.588;23.358;2022-10-15T02:06:24;6.07;;;4.43;;
6394;SDS011;3230;42.588;23.358;2022-10-15T02:11:49;5.43;;;4.30;;
6394;SDS011;3230;42.588;23.358;2022-10-15T02:14:55;8.87;;;5.60;;
6394;SDS011;3230;42.588;23.358;2022-10-15T02:17:39;13.23;;;5.57;;
6394;SDS011;3230;42.588;23.358;2022-10-15T02:22:52;10.60;;;5.83;;
6394;SDS011;3230;42.588;23.358;2022-10-15T02:25:23;10.80;;;6.07;;
6394;SDS011;3230;42.588;23.358;2022-10-15T02:27:52;9.13;;;6.40;;
6394;SDS011;3230;42.588;23.358;2022-10-15T02:30:20;7.27;;;5.83;;
6394;SDS011;3230;42.588;23.358;2022-10-15T02:32:48;11.33;;;7.40;;
6394;SDS011;3230;42.588;23.358;2022-10-15T02:35:18;11.73;;;8.17;;
6394;SDS011;3230;42.588;23.358;2022-10-15T02:37:47;10.00;;;6.20;;
6394;SDS011;3230;42.588;23.358;2022-10-15T02:40:15;13.37;;;5.60;;
6394;SDS011;3230;42.588;23.358;2022-10-15T02:42:41;9.30;;;6.00;;
6394;SDS011;3230;42.588;23.358;2022-10-15T02:45:07;9.77;;;6.00;;
6394;SDS011;3230;42.588;23.358;2022-10-15T02:47:34;8.70;;;5.93;;
6394;SDS011;3230;42.588;23.358;2022-10-15T02:49:59;12.63;;;5.33;;
6394;SDS011;3230;42.588;23.358;2022-10-15T02:52:24;6.87;;;5.00;;
6394;SDS011;3230;42.588;23.358;2022-10-15T02:54:50;7.20;;;5.30;;
6394;SDS011;3230;42.588;23.358;2022-10-15T02:57:15;7.07;;;4.90;;
6394;SDS011;3230;42.588;23.358;2022-10-15T02:59:40;6.83;;;5.10;;
6394;SDS011;3230;42.588;23.358;2022-10-15T03:02:06;5.97;;;4.73;;
6394;SDS011;3230;42.588;23.358;2022-10-15T03:04:31;7.70;;;5.33;;
6394;SDS011;3230;42.588;23.358;2022-10-15T03:06:57;6.90;;;5.30;;
6394;SDS011;3230;42.588;23.358;2022-10-15T03:09:22;6.97;;;5.70;;
6394;SDS011;3230;42.588;23.358;2022-10-15T03:11:48;10.77;;;6.70;;
6394;SDS011;3230;42.588;23.358;2022-10-15T03:14:13;7.10;;;5.70;;
6394;SDS011;3230;42.588;23.358;2022-10-15T03:16:38;9.30;;;6.23;;
6394;SDS011;3230;42.588;23.358;2022-10-15T03:19:04;9.00;;;5.83;;
6394;SDS011;3230;42.588;23.358;2022-10-15T03:21:29;9.97;;;5.80;;
6394;SDS011;3230;42.588;23.358;2022-10-15T03:23:56;19.30;;;6.60;;
6394;SDS011;3230;42.588;23.358;2022-10-15T03:26:22;10.30;;;5.77;;
6394;SDS011;3230;42.588;23.358;2022-10-15T03:28:47;11.60;;;5.33;;
6394;SDS011;3230;42.588;23.358;2022-10-15T03:31:12;7.40;;;5.77;;
6394;SDS011;3230;42.588;23.358;2022-10-15T03:33:38;11.23;;;5.60;;
6394;SDS011;3230;42.588;23.358;2022-10-15T03:36:04;8.03;;;5.43;;
6394;SDS011;3230;42.588;23.358;2022-10-15T03:38:30;10.80;;;5.90;;
6394;SDS011;3230;42.588;23.358;2022-10-15T03:40:56;11.47;;;5.40;;
6394;SDS011;3230;42.588;23.358;2022-10-15T03:43:24;8.30;;;5.50;;
6394;SDS011;3230;42.588;23.358;2022-10-15T03:45:50;7.87;;;5.20;;
6394;SDS011;3230;42.588;23.358;2022-10-15T03:48:16;6.60;;;4.90;;
6394;SDS011;3230;42.588;23.358;2022-10-15T03:50:41;7.73;;;5.30;;
6394;SDS011;3230;42.588;23.358;2022-10-15T03:53:07;8.80;;;5.43;;
6394;SDS011;3230;42.588;23.358;2022-10-15T03:55:32;7.93;;;5.43;;
6394;SDS011;3230;42.588;23.358;2022-10-15T03:57:58;7.50;;;5.23;;
6394;SDS011;3230;42.588;23.358;2022-10-15T04:00:23;8.73;;;5.17;;
6394;SDS011;3230;42.588;23.358;2022-10-15T04:02:49;8.40;;;5.20;;
6394;SDS011;3230;42.588;23.358;2022-10-15T04:05:14;8.10;;;5.47;;
6394;SDS011;3230;42.588;23.358;2022-10-15T04:07:40;12.03;;;5.63;;
6394;SDS011;3230;42.588;23.358;2022-10-15T04:10:06;8.20;;;5.37;;
6394;SDS011;3230;42.588;23.358;2022-10-15T04:12:32;8.50;;;5.80;;
6394;SDS011;3230;42.588;23.358;2022-10-15T04:14:58;8.53;;;5.60;;
6394;SDS011;3230;42.588;23.358;2022-10-15T04:17:23;7.80;;;5.90;;
6394;SDS011;3230;42.588;23.358;2022-10-15T04:19:49;9.30;;;5.87;;
6394;SDS011;3230;42.588;23.358;2022-10-15T04:22:14;10.17;;;6.33;;
6394;SDS011;3230;42.588;23.358;2022-10-15T04:24:40;10.30;;;6.33;;
6394;SDS011;3230;42.588;23.358;2022-10-15T04:27:05;9.60;;;5.80;;
6394;SDS011;3230;42.588;23.358;2022-10-15T04:29:31;8.33;;;5.40;;
6394;SDS011;3230;42.588;23.358;2022-10-15T04:31:57;7.77;;;5.20;;
6394;SDS011;3230;42.588;23.358;2022-10-15T04:34:22;8.40;;;4.90;;
6394;SDS011;3230;42.588;23.358;2022-10-15T04:36:47;8.70;;;5.37;;
6394;SDS011;3230;42.588;23.358;2022-10-15T04:39:13;6.63;;;5.00;;
6394;SDS011;3230;42.588;23.358;2022-10-15T04:41:38;9.10;;;5.53;;
6394;SDS011;3230;42.588;23.358;2022-10-15T04:44:04;9.07;;;5.23;;
6394;SDS011;3230;42.588;23.358;2022-10-15T04:46:29;10.67;;;7.33;;
6394;SDS011;3230;42.588;23.358;2022-10-15T04:48:55;11.20;;;7.30;;
6394;SDS011;3230;42.588;23.358;2022-10-15T04:51:22;11.57;;;5.50;;
6394;SDS011;3230;42.588;23.358;2022-10-15T04:53:48;8.83;;;6.27;;
6394;SDS011;3230;42.588;23.358;2022-10-15T04:56:14;8.77;;;5.50;;
6394;SDS011;3230;42.588;23.358;2022-10-15T04:58:42;8.40;;;6.00;;
6394;SDS011;3230;42.588;23.358;2022-10-15T05:01:09;9.93;;;5.23;;
6394;SDS011;3230;42.588;23.358;2022-10-15T05:03:37;7.93;;;5.53;;
6394;SDS011;3230;42.588;23.358;2022-10-15T05:06:04;8.40;;;5.33;;
6394;SDS011;3230;42.588;23.358;2022-10-15T05:08:31;8.00;;;5.20;;
6394;SDS011;3230;42.588;23.358;2022-10-15T05:11:04;11.27;;;5.70;;
6394;SDS011;3230;42.588;23.358;2022-10-15T05:13:32;7.83;;;4.93;;
6394;SDS011;3230;42.588;23.358;2022-10-15T05:16:17;8.17;;;5.20;;
6394;SDS011;3230;42.588;23.358;2022-10-15T05:18:45;11.13;;;6.50;;
6394;SDS011;3230;42.588;23.358;2022-10-15T05:21:11;9.40;;;6.00;;
6394;SDS011;3230;42.588;23.358;2022-10-15T05:23:37;9.83;;;5.60;;
6394;SDS011;3230;42.588;23.358;2022-10-15T05:26:05;9.60;;;5.83;;
6394;SDS011;3230;42.588;23.358;2022-10-15T05:28:51;9.63;;;5.70;;
6394;SDS011;3230;42.588;23.358;2022-10-15T05:31:21;10.27;;;5.77;;
6394;SDS011;3230;42.588;23.358;2022-10-15T05:33:48;12.20;;;7.70;;
6394;SDS011;3230;42.588;23.358;2022-10-15T05:36:19;9.33;;;6.23;;
6394;SDS011;3230;42.588;23.358;2022-10-15T05:38:51;10.27;;;6.60;;
6394;SDS011;3230;42.588;23.358;2022-10-15T05:41:18;12.27;;;7.00;;
6394;SDS011;3230;42.588;23.358;2022-10-15T05:43:47;12.07;;;6.77;;
6394;SDS011;3230;42.588;23.358;2022-10-15T05:46:14;13.30;;;7.40;;
6394;SDS011;3230;42.588;23.358;2022-10-15T05:48:40;15.40;;;8.10;;
6394;SDS011;3230;42.588;23.358;2022-10-15T05:51:07;21.87;;;9.43;;
6394;SDS011;3230;42.588;23.358;2022-10-15T05:53:35;13.27;;;7.57;;
6394;SDS011;3230;42.588;23.358;2022-10-15T05:56:02;12.50;;;6.70;;
6394;SDS011;3230;42.588;23.358;2022-10-15T05:58:28;9.37;;;6.53;;
6394;SDS011;3230;42.588;23.358;2022-10-15T06:00:54;11.47;;;6.70;;
6394;SDS011;3230;42.588;23.358;2022-10-15T06:03:20;12.47;;;7.17;;
6394;SDS011;3230;42.588;23.358;2022-10-15T06:05:46;14.80;;;8.20;;
6394;SDS011;3230;42.588;23.358;2022-10-15T06:08:11;13.77;;;8.17;;
6394;SDS011;3230;42.588;23.358;2022-10-15T06:10:37;11.43;;;6.17;;
6394;SDS011;3230;42.588;23.358;2022-10-15T06:13:02;7.83;;;5.50;;
6394;SDS011;3230;42.588;23.358;2022-10-15T06:15:29;11.13;;;6.00;;
6394;SDS011;3230;42.588;23.358;2022-10-15T06:17:54;9.03;;;5.80;;
6394;SDS011;3230;42.588;23.358;2022-10-15T06:20:20;8.50;;;5.83;;
6394;SDS011;3230;42.588;23.358;2022-10-15T06:22:45;7.80;;;5.60;;
6394;SDS011;3230;42.588;23.358;2022-10-15T06:25:11;7.90;;;5.17;;
6394;SDS011;3230;42.588;23.358;2022-10-15T06:27:36;8.00;;;5.50;;
6394;SDS011;3230;42.588;23.358;2022-10-15T06:30:02;12.40;;;6.47;;
6394;SDS011;3230;42.588;23.358;2022-10-15T06:32:27;7.97;;;5.67;;
6394;SDS011;3230;42.588;23.358;2022-10-15T06:34:53;9.47;;;5.60;;
6394;SDS011;3230;42.588;23.358;2022-10-15T06:37:18;9.70;;;4.60;;
6394;SDS011;3230;42.588;23.358;2022-10-15T06:39:43;7.23;;;4.50;;
6394;SDS011;3230;42.588;23.358;2022-10-15T06:42:10;6.33;;;5.00;;
6394;SDS011;3230;42.588;23.358;2022-10-15T06:44:36;7.87;;;5.10;;
6394;SDS011;3230;42.588;23.358;2022-10-15T06:47:02;5.87;;;4.67;;
6394;SDS011;3230;42.588;23.358;2022-10-15T06:49:27;8.47;;;4.40;;
6394;SDS011;3230;42.588;23.358;2022-10-15T06:51:53;5.67;;;4.40;;
6394;SDS011;3230;42.588;23.358;2022-10-15T06:54:18;8.77;;;4.80;;
6394;SDS011;3230;42.588;23.358;2022-10-15T06:56:43;11.30;;;4.30;;
6394;SDS011;3230;42.588;23.358;2022-10-15T06:59:09;6.63;;;4.67;;
6394;SDS011;3230;42.588;23.358;2022-10-15T07:01:34;6.63;;;4.63;;
6394;SDS011;3230;42.588;23.358;2022-10-15T07:03:59;7.10;;;4.43;;
6394;SDS011;3230;42.588;23.358;2022-10-15T07:06:25;8.43;;;4.40;;
6394;SDS011;3230;42.588;23.358;2022-10-15T07:08:50;5.23;;;4.00;;
6394;SDS011;3230;42.588;23.358;2022-10-15T07:11:16;6.00;;;4.40;;
6394;SDS011;3230;42.588;23.358;2022-10-15T07:13:42;6.33;;;4.50;;
6394;SDS011;3230;42.588;23.358;2022-10-15T07:16:08;4.37;;;3.40;;
6394;SDS011;3230;42.588;23.358;2022-10-15T07:18:35;12.30;;;4.70;;
6394;SDS011;3230;42.588;23.358;2022-10-15T07:21:03;6.20;;;4.10;;
6394;SDS011;3230;42.588;23.358;2022-10-15T07:23:29;6.93;;;3.57;;
6394;SDS011;3230;42.588;23.358;2022-10-15T07:25:59;6.37;;;4.33;;
6394;SDS011;3230;42.588;23.358;2022-10-15T07:28:25;8.60;;;4.10;;
6394;SDS011;3230;42.588;23.358;2022-10-15T07:30:50;8.03;;;4.50;;
6394;SDS011;3230;42.588;23.358;2022-10-15T07:33:16;6.73;;;4.50;;
6394;SDS011;3230;42.588;23.358;2022-10-15T07:35:42;7.43;;;4.40;;
6394;SDS011;3230;42.588;23.358;2022-10-15T07:38:07;10.07;;;5.17;;
6394;SDS011;3230;42.588;23.358;2022-10-15T07:40:33;6.53;;;4.70;;
6394;SDS011;3230;42.588;23.358;2022-10-15T07:42:58;7.60;;;4.40;;
6394;SDS011;3230;42.588;23.358;2022-10-15T07:45:24;8.70;;;4.40;;
6394;SDS011;3230;42.588;23.358;2022-10-15T07:47:50;8.37;;;4.00;;
6394;SDS011;3230;42.588;23.358;2022-10-15T07:50:17;6.47;;;4.00;;
6394;SDS011;3230;42.588;23.358;2022-10-15T07:52:43;6.23;;;3.60;;
6394;SDS011;3230;42.588;23.358;2022-10-15T07:55:09;5.13;;;4.03;;
6394;SDS011;3230;42.588;23.358;2022-10-15T07:57:34;7.83;;;4.30;;
6394;SDS011;3230;42.588;23.358;2022-10-15T08:00:00;8.60;;;4.47;;
6394;SDS011;3230;42.588;23.358;2022-10-15T08:02:25;5.93;;;4.07;;
6394;SDS011;3230;42.588;23.358;2022-10-15T08:04:51;13.23;;;4.20;;
6394;SDS011;3230;42.588;23.358;2022-10-15T08:07:16;8.73;;;4.10;;
6394;SDS011;3230;42.588;23.358;2022-10-15T08:09:42;5.63;;;3.90;;
6394;SDS011;3230;42.588;23.358;2022-10-15T08:12:07;4.17;;;3.43;;
6394;SDS011;3230;42.588;23.358;2022-10-15T08:14:33;5.30;;;3.87;;
6394;SDS011;3230;42.588;23.358;2022-10-15T08:17:00;6.40;;;4.50;;
6394;SDS011;3230;42.588;23.358;2022-10-15T08:19:27;6.57;;;4.60;;
6394;SDS011;3230;42.588;23.358;2022-10-15T08:21:53;8.00;;;4.17;;
6394;SDS011;3230;42.588;23.358;2022-10-15T08:24:18;6.00;;;3.80;;
6394;SDS011;3230;42.588;23.358;2022-10-15T08:26:43;7.80;;;3.90;;
6394;SDS011;3230;42.588;23.358;2022-10-15T08:29:10;8.17;;;4.10;;
6394;SDS011;3230;42.588;23.358;2022-10-15T08:31:36;5.80;;;3.90;;
6394;SDS011;3230;42.588;23.358;2022-10-15T08:34:03;10.10;;;3.93;;
6394;SDS011;3230;42.588;23.358;2022-10-15T08:36:29;6.43;;;3.70;;
6394;SDS011;3230;42.588;23.358;2022-10-15T08:38:54;4.90;;;3.63;;
6394;SDS011;3230;42.588;23.358;2022-10-15T08:46:58;7.00;;;4.40;;
6394;SDS011;3230;42.588;23.358;2022-10-15T08:49:51;6.33;;;3.80;;
6394;SDS011;3230;42.588;23.358;2022-10-15T08:52:21;5.27;;;3.57;;
6394;SDS011;3230;42.588;23.358;2022-10-15T08:54:49;6.37;;;4.50;;
6394;SDS011;3230;42.588;23.358;2022-10-15T09:00:02;5.90;;;4.30;;
6394;SDS011;3230;42.588;23.358;2022-10-15T09:08:50;6.97;;;4.50;;
6394;SDS011;3230;42.588;23.358;2022-10-15T09:11:34;9.57;;;4.27;;
6394;SDS011;3230;42.588;23.358;2022-10-15T09:14:14;6.00;;;4.30;;
6394;SDS011;3230;42.588;23.358;2022-10-15T09:16:43;8.70;;;4.30;;
6394;SDS011;3230;42.588;23.358;2022-10-15T09:19:22;11.20;;;4.97;;
6394;SDS011;3230;42.588;23.358;2022-10-15T09:21:50;9.57;;;4.43;;
6394;SDS011;3230;42.588;23.358;2022-10-15T09:24:21;6.53;;;4.00;;
6394;SDS011;3230;42.588;23.358;2022-10-15T09:37:53;10.10;;;4.53;;
6394;SDS011;3230;42.588;23.358;2022-10-15T09:43:07;7.10;;;4.17;;
6394;SDS011;3230;42.588;23.358;2022-10-15T09:45:35;6.87;;;3.93;;
6394;SDS011;3230;42.588;23.358;2022-10-15T09:48:04;9.60;;;4.00;;
6394;SDS011;3230;42.588;23.358;2022-10-15T09:50:40;5.40;;;4.17;;
6394;SDS011;3230;42.588;23.358;2022-10-15T09:55:51;6.20;;;4.00;;
6394;SDS011;3230;42.588;23.358;2022-10-15T09:58:29;7.90;;;4.07;;
6394;SDS011;3230;42.588;23.358;2022-10-15T10:01:05;6.63;;;4.27;;
6394;SDS011;3230;42.588;23.358;2022-10-15T10:03:40;6.60;;;4.00;;
6394;SDS011;3230;42.588;23.358;2022-10-15T10:06:06;4.90;;;3.90;;
6394;SDS011;3230;42.588;23.358;2022-10-15T10:11:21;8.77;;;4.60;;
6394;SDS011;3230;42.588;23.358;2022-10-15T10:16:13;5.50;;;3.57;;
6394;SDS011;3230;42.588;23.358;2022-10-15T10:18:42;5.83;;;3.80;;
6394;SDS011;3230;42.588;23.358;2022-10-15T10:21:22;5.40;;;3.27;;
6394;SDS011;3230;42.588;23.358;2022-10-15T10:24:23;7.77;;;4.10;;
6394;SDS011;3230;42.588;23.358;2022-10-15T10:26:52;6.80;;;3.77;;
6394;SDS011;3230;42.588;23.358;2022-10-15T10:29:19;5.20;;;3.47;;
6394;SDS011;3230;42.588;23.358;2022-10-15T10:31:46;5.43;;;3.37;;
6394;SDS011;3230;42.588;23.358;2022-10-15T10:34:16;5.30;;;3.67;;
6394;SDS011;3230;42.588;23.358;2022-10-15T10:36:48;4.33;;;3.53;;
6394;SDS011;3230;42.588;23.358;2022-10-15T10:41:51;5.83;;;4.27;;
6394;SDS011;3230;42.588;23.358;2022-10-15T10:44:32;4.87;;;3.50;;
6394;SDS011;3230;42.588;23.358;2022-10-15T10:49:57;25.20;;;8.60;;
6394;SDS011;3230;42.588;23.358;2022-10-15T10:52:27;10.07;;;4.00;;
6394;SDS011;3230;42.588;23.358;2022-10-15T10:55:05;5.87;;;3.83;;
6394;SDS011;3230;42.588;23.358;2022-10-15T10:57:55;5.27;;;3.70;;
6394;SDS011;3230;42.588;23.358;2022-10-15T11:00:45;4.60;;;3.07;;
6394;SDS011;3230;42.588;23.358;2022-10-15T11:05:52;7.73;;;3.60;;
6394;SDS011;3230;42.588;23.358;2022-10-15T11:11:24;10.87;;;4.20;;
6394;SDS011;3230;42.588;23.358;2022-10-15T11:13:58;5.87;;;4.70;;
6394;SDS011;3230;42.588;23.358;2022-10-15T11:32:44;6.50;;;3.43;;
6394;SDS011;3230;42.588;23.358;2022-10-15T11:35:33;3.93;;;3.07;;
6394;SDS011;3230;42.588;23.358;2022-10-15T11:38:18;5.30;;;3.43;;
6394;SDS011;3230;42.588;23.358;2022-10-15T11:57:25;5.17;;;3.77;;
6394;SDS011;3230;42.588;23.358;2022-10-15T11:59:54;5.87;;;3.80;;
6394;SDS011;3230;42.588;23.358;2022-10-15T12:02:28;3.90;;;3.10;;
6394;SDS011;3230;42.588;23.358;2022-10-15T12:04:59;5.87;;;3.10;;
6394;SDS011;3230;42.588;23.358;2022-10-15T12:07:51;5.80;;;3.60;;
6394;SDS011;3230;42.588;23.358;2022-10-15T12:10:24;5.60;;;3.10;;
6394;SDS011;3230;42.588;23.358;2022-10-15T12:13:17;3.60;;;2.90;;
6394;SDS011;3230;42.588;23.358;2022-10-15T12:15:57;5.20;;;3.00;;
6394;SDS011;3230;42.588;23.358;2022-10-15T12:18:35;5.30;;;3.50;;
6394;SDS011;3230;42.588;23.358;2022-10-15T12:24:47;7.73;;;2.97;;
6394;SDS011;3230;42.588;23.358;2022-10-15T12:29:40;4.60;;;3.20;;
6394;SDS011;3230;42.588;23.358;2022-10-15T12:32:14;10.97;;;3.47;;
6394;SDS011;3230;42.588;23.358;2022-10-15T12:35:01;4.60;;;3.13;;
6394;SDS011;3230;42.588;23.358;2022-10-15T12:37:43;3.93;;;2.93;;
6394;SDS011;3230;42.588;23.358;2022-10-15T12:40:29;5.43;;;3.07;;
6394;SDS011;3230;42.588;23.358;2022-10-15T12:45:22;4.80;;;3.10;;
6394;SDS011;3230;42.588;23.358;2022-10-15T12:50:34;4.50;;;3.30;;
6394;SDS011;3230;42.588;23.358;2022-10-15T12:56:10;4.70;;;3.70;;
6394;SDS011;3230;42.588;23.358;2022-10-15T12:58:34;4.47;;;2.87;;
6394;SDS011;3230;42.588;23.358;2022-10-15T13:03:53;6.10;;;3.10;;
6394;SDS011;3230;42.588;23.358;2022-10-15T13:08:47;4.57;;;3.10;;
6394;SDS011;3230;42.588;23.358;2022-10-15T13:11:18;4.30;;;3.07;;
6394;SDS011;3230;42.588;23.358;2022-10-15T13:13:44;4.50;;;2.97;;
6394;SDS011;3230;42.588;23.358;2022-10-15T13:16:10;8.60;;;2.53;;
6394;SDS011;3230;42.588;23.358;2022-10-15T13:18:37;11.30;;;3.63;;
6394;SDS011;3230;42.588;23.358;2022-10-15T13:21:05;4.00;;;3.07;;
6394;SDS011;3230;42.588;23.358;2022-10-15T13:23:32;3.30;;;2.87;;
6394;SDS011;3230;42.588;23.358;2022-10-15T13:28:48;6.70;;;3.27;;
6394;SDS011;3230;42.588;23.358;2022-10-15T13:31:24;7.30;;;3.33;;
6394;SDS011;3230;42.588;23.358;2022-10-15T13:34:00;4.60;;;3.60;;
6394;SDS011;3230;42.588;23.358;2022-10-15T13:36:34;6.07;;;3.60;;
6394;SDS011;3230;42.588;23.358;2022-10-15T13:39:02;4.53;;;3.17;;
6394;SDS011;3230;42.588;23.358;2022-10-15T13:41:33;4.10;;;3.00;;
6394;SDS011;3230;42.588;23.358;2022-10-15T13:44:01;7.40;;;3.27;;
6394;SDS011;3230;42.588;23.358;2022-10-15T13:46:35;6.63;;;3.90;;
6394;SDS011;3230;42.588;23.358;2022-10-15T13:49:03;5.37;;;3.60;;
6394;SDS011;3230;42.588;23.358;2022-10-15T13:51:41;6.93;;;3.40;;
6394;SDS011;3230;42.588;23.358;2022-10-15T13:54:21;6.37;;;3.37;;
6394;SDS011;3230;42.588;23.358;2022-10-15T13:56:53;3.67;;;2.90;;
6394;SDS011;3230;42.588;23.358;2022-10-15T13:59:24;5.57;;;3.07;;
6394;SDS011;3230;42.588;23.358;2022-10-15T14:01:56;6.23;;;3.17;;
6394;SDS011;3230;42.588;23.358;2022-10-15T14:04:29;4.33;;;2.47;;
6394;SDS011;3230;42.588;23.358;2022-10-15T14:06:59;4.07;;;2.60;;
6394;SDS011;3230;42.588;23.358;2022-10-15T14:09:42;4.37;;;3.13;;
6394;SDS011;3230;42.588;23.358;2022-10-15T14:12:11;4.27;;;2.93;;
6394;SDS011;3230;42.588;23.358;2022-10-15T14:14:41;5.27;;;3.10;;
6394;SDS011;3230;42.588;23.358;2022-10-15T14:17:31;4.20;;;2.90;;
6394;SDS011;3230;42.588;23.358;2022-10-15T14:19:59;9.27;;;2.97;;
6394;SDS011;3230;42.588;23.358;2022-10-15T14:22:27;5.87;;;3.90;;
6394;SDS011;3230;42.588;23.358;2022-10-15T14:24:53;4.07;;;2.90;;
6394;SDS011;3230;42.588;23.358;2022-10-15T14:27:24;4.53;;;3.27;;
6394;SDS011;3230;42.588;23.358;2022-10-15T14:29:55;5.10;;;3.50;;
6394;SDS011;3230;42.588;23.358;2022-10-15T14:32:24;6.97;;;3.20;;
6394;SDS011;3230;42.588;23.358;2022-10-15T14:34:55;3.00;;;2.50;;
6394;SDS011;3230;42.588;23.358;2022-10-15T14:47:49;6.90;;;4.37;;
6394;SDS011;3230;42.588;23.358;2022-10-15T14:50:17;8.50;;;4.20;;
6394;SDS011;3230;42.588;23.358;2022-10-15T14:52:44;6.80;;;3.00;;
6394;SDS011;3230;42.588;23.358;2022-10-15T14:55:55;4.70;;;3.07;;
6394;SDS011;3230;42.588;23.358;2022-10-15T15:00:23;3.87;;;2.57;;
6394;SDS011;3230;42.588;23.358;2022-10-15T15:02:53;2.93;;;2.27;;
6394;SDS011;3230;42.588;23.358;2022-10-15T15:05:23;3.07;;;2.50;;
6394;SDS011;3230;42.588;23.358;2022-10-15T15:07:50;9.10;;;3.60;;
6394;SDS011;3230;42.588;23.358;2022-10-15T15:10:16;4.40;;;2.60;;
6394;SDS011;3230;42.588;23.358;2022-10-15T15:12:44;7.07;;;3.40;;
6394;SDS011;3230;42.588;23.358;2022-10-15T15:15:16;5.33;;;2.83;;
6394;SDS011;3230;42.588;23.358;2022-10-15T15:17:44;7.40;;;2.83;;
6394;SDS011;3230;42.588;23.358;2022-10-15T15:20:09;5.80;;;3.17;;
6394;SDS011;3230;42.588;23.358;2022-10-15T15:22:36;4.70;;;3.10;;
6394;SDS011;3230;42.588;23.358;2022-10-15T15:25:05;11.13;;;6.70;;
6394;SDS011;3230;42.588;23.358;2022-10-15T15:27:38;9.70;;;6.70;;
6394;SDS011;3230;42.588;23.358;2022-10-15T15:30:05;14.83;;;9.50;;
6394;SDS011;3230;42.588;23.358;2022-10-15T15:32:32;33.07;;;17.20;;
6394;SDS011;3230;42.588;23.358;2022-10-15T15:34:58;41.80;;;22.70;;
6394;SDS011;3230;42.588;23.358;2022-10-15T15:37:24;31.13;;;18.43;;
6394;SDS011;3230;42.588;23.358;2022-10-15T15:39:50;27.27;;;15.30;;
6394;SDS011;3230;42.588;23.358;2022-10-15T15:42:17;19.17;;;12.80;;
6394;SDS011;3230;42.588;23.358;2022-10-15T15:44:45;16.17;;;9.50;;
6394;SDS011;3230;42.588;23.358;2022-10-15T15:47:11;16.90;;;8.70;;
6394;SDS011;3230;42.588;23.358;2022-10-15T15:49:37;16.47;;;7.80;;
6394;SDS011;3230;42.588;23.358;2022-10-15T15:52:07;12.97;;;7.23;;
6394;SDS011;3230;42.588;23.358;2022-10-15T15:54:38;19.13;;;7.60;;
6394;SDS011;3230;42.588;23.358;2022-10-15T15:57:04;16.07;;;7.30;;
6394;SDS011;3230;42.588;23.358;2022-10-15T15:59:30;14.77;;;6.23;;
6394;SDS011;3230;42.588;23.358;2022-10-15T16:01:55;17.30;;;8.53;;
6394;SDS011;3230;42.588;23.358;2022-10-15T16:04:20;7.30;;;4.23;;
6394;SDS011;3230;42.588;23.358;2022-10-15T16:06:46;11.20;;;5.07;;
6394;SDS011;3230;42.588;23.358;2022-10-15T16:09:13;14.17;;;7.63;;
6394;SDS011;3230;42.588;23.358;2022-10-15T16:11:40;16.97;;;10.00;;
6394;SDS011;3230;42.588;23.358;2022-10-15T16:14:05;25.57;;;14.60;;
6394;SDS011;3230;42.588;23.358;2022-10-15T16:16:31;25.17;;;14.17;;
6394;SDS011;3230;42.588;23.358;2022-10-15T16:18:57;34.13;;;18.80;;
6394;SDS011;3230;42.588;23.358;2022-10-15T16:21:23;34.13;;;17.80;;
6394;SDS011;3230;42.588;23.358;2022-10-15T16:23:49;37.57;;;17.80;;
6394;SDS011;3230;42.588;23.358;2022-10-15T16:26:15;33.97;;;18.43;;
6394;SDS011;3230;42.588;23.358;2022-10-15T16:28:41;34.07;;;18.90;;
6394;SDS011;3230;42.588;23.358;2022-10-15T16:31:16;38.93;;;20.90;;
6394;SDS011;3230;42.588;23.358;2022-10-15T16:33:49;51.77;;;22.47;;
6394;SDS011;3230;42.588;23.358;2022-10-15T16:36:14;33.00;;;16.40;;
6394;SDS011;3230;42.588;23.358;2022-10-15T16:38:42;30.50;;;15.10;;
6394;SDS011;3230;42.588;23.358;2022-10-15T16:41:09;31.57;;;16.07;;
6394;SDS011;3230;42.588;23.358;2022-10-15T16:43:36;36.97;;;18.40;;
6394;SDS011;3230;42.588;23.358;2022-10-15T16:46:02;70.33;;;28.10;;
6394;SDS011;3230;42.588;23.358;2022-10-15T16:48:29;59.87;;;26.37;;
6394;SDS011;3230;42.588;23.358;2022-10-15T16:51:14;60.87;;;26.83;;
6394;SDS011;3230;42.588;23.358;2022-10-15T16:53:42;45.60;;;23.07;;
6394;SDS011;3230;42.588;23.358;2022-10-15T16:56:13;52.50;;;24.57;;
6394;SDS011;3230;42.588;23.358;2022-10-15T16:58:38;41.00;;;21.60;;
6394;SDS011;3230;42.588;23.358;2022-10-15T17:01:06;36.50;;;20.67;;
6394;SDS011;3230;42.588;23.358;2022-10-15T17:03:35;43.07;;;20.53;;
6394;SDS011;3230;42.588;23.358;2022-10-15T17:06:02;38.70;;;19.37;;
6394;SDS011;3230;42.588;23.358;2022-10-15T17:08:49;42.43;;;20.90;;
6394;SDS011;3230;42.588;23.358;2022-10-15T17:13:46;47.70;;;23.00;;
6394;SDS011;3230;42.588;23.358;2022-10-15T17:16:16;49.40;;;22.57;;
6394;SDS011;3230;42.588;23.358;2022-10-15T17:18:44;40.93;;;18.70;;
6394;SDS011;3230;42.588;23.358;2022-10-15T17:21:12;32.77;;;16.77;;
6394;SDS011;3230;42.588;23.358;2022-10-15T17:23:41;43.13;;;21.93;;
6394;SDS011;3230;42.588;23.358;2022-10-15T17:26:08;47.60;;;29.57;;
6394;SDS011;3230;42.588;23.358;2022-10-15T17:28:36;49.53;;;26.70;;
6394;SDS011;3230;42.588;23.358;2022-10-15T17:31:05;44.23;;;21.03;;
6394;SDS011;3230;42.588;23.358;2022-10-15T17:33:32;38.73;;;18.33;;